Time;durP1;ratioP1;P1;durP2;ratioP2;P2;SDS_P1;SDS_P2;PMS_P1;PMS_P2;Temp;Humidity;BMP_temperature;BMP_pressure;BME280_temperature;BME280_humidity;BME280_pressure;Samples;Min_cycle;Max_cycle;Signal;HPM_P1;HPM_P2
2022/12/19 00:01:15;;;;;;;32.90;20.27;;;0.60;99.90;;;;;;5072902;28;20454;-74
2022/12/19 00:03:53;;;;;;;33.40;21.30;;;0.60;99.90;;;;;;5082075;28;20412;-74
2022/12/19 00:06:19;;;;;;;33.55;21.48;;;0.70;99.90;;;;;;5079794;28;20828;-74
2022/12/19 00:08:47;;;;;;;35.80;21.88;;;0.70;99.90;;;;;;5071112;28;20497;-74
2022/12/19 00:11:14;;;;;;;32.10;21.47;;;0.70;99.90;;;;;;5086061;28;20410;-74
2022/12/19 00:13:40;;;;;;;33.38;21.45;;;0.70;99.90;;;;;;5073056;28;20414;-74
2022/12/19 00:16:17;;;;;;;35.10;22.43;;;0.70;99.90;;;;;;5087612;28;20795;-74
2022/12/19 00:18:45;;;;;;;34.53;21.55;;;0.70;99.90;;;;;;5085920;28;20434;-74
2022/12/19 00:21:13;;;;;;;34.77;23.37;;;0.70;99.90;;;;;;5087616;28;20420;-74
2022/12/19 00:23:39;;;;;;;34.70;22.35;;;0.70;99.90;;;;;;5086078;28;20917;-74
2022/12/19 00:26:18;;;;;;;37.87;22.63;;;0.70;99.90;;;;;;5073976;28;20473;-74
2022/12/19 00:28:47;;;;;;;37.63;23.17;;;0.70;99.90;;;;;;5086830;28;20410;-73
2022/12/19 00:31:14;;;;;;;37.13;23.83;;;0.70;99.90;;;;;;5089379;28;20402;-74
2022/12/19 00:33:41;;;;;;;36.33;23.55;;;0.70;99.90;;;;;;5091054;28;20418;-74
2022/12/19 00:36:10;;;;;;;35.60;21.83;;;0.80;99.90;;;;;;5069141;28;20408;-74
2022/12/19 00:38:36;;;;;;;38.03;23.42;;;0.80;99.90;;;;;;5084489;28;20455;-74
2022/12/19 00:41:13;;;;;;;40.25;25.23;;;0.80;99.90;;;;;;5078328;28;20394;-74
2022/12/19 00:43:39;;;;;;;39.42;23.27;;;0.80;99.90;;;;;;5091191;28;20412;-74
2022/12/19 00:46:08;;;;;;;39.13;24.20;;;0.80;99.90;;;;;;5086915;28;20478;-74
2022/12/19 00:48:34;;;;;;;38.55;24.08;;;0.80;99.90;;;;;;5085773;28;20418;-74
2022/12/19 00:51:11;;;;;;;40.17;23.35;;;0.80;99.90;;;;;;5091221;28;20766;-74
2022/12/19 00:53:37;;;;;;;39.22;23.92;;;0.80;99.90;;;;;;5090874;28;20398;-74
2022/12/19 00:56:05;;;;;;;39.08;24.73;;;0.90;99.90;;;;;;5086306;28;20410;-74
2022/12/19 00:58:30;;;;;;;41.65;25.15;;;0.80;99.90;;;;;;5089110;28;20398;-74
2022/12/19 01:00:57;;;;;;;41.30;24.77;;;0.90;99.90;;;;;;5080188;28;20403;-74
2022/12/19 01:03:23;;;;;;;39.70;24.08;;;0.90;99.90;;;;;;5084384;28;20860;-74
2022/12/19 01:05:50;;;;;;;37.83;24.80;;;0.90;99.90;;;;;;5082403;28;20390;-74
2022/12/19 01:08:19;;;;;;;41.53;24.88;;;0.90;99.90;;;;;;5090212;28;20459;-74
2022/12/19 01:10:46;;;;;;;39.35;25.20;;;0.90;99.90;;;;;;5090645;28;20398;-74
2022/12/19 01:13:12;;;;;;;38.17;23.95;;;1.00;99.90;;;;;;5085125;28;20426;-74
2022/12/19 01:15:40;;;;;;;38.20;24.90;;;1.00;99.90;;;;;;5082082;28;20397;-74
2022/12/19 01:18:08;;;;;;;42.25;25.40;;;1.00;99.90;;;;;;5089144;28;20430;-74
2022/12/19 01:20:40;;;;;;;36.50;23.83;;;1.00;99.90;;;;;;5089797;28;20409;-74
2022/12/19 01:23:08;;;;;;;39.28;24.17;;;1.10;99.90;;;;;;5089823;28;20413;-74
2022/12/19 01:25:35;;;;;;;39.35;23.33;;;1.10;99.90;;;;;;5087929;28;20970;-74
2022/12/19 01:28:00;;;;;;;40.45;24.38;;;1.00;99.90;;;;;;5081638;28;20408;-74
2022/12/19 01:30:27;;;;;;;38.87;24.27;;;1.10;99.90;;;;;;5086250;28;20761;-74
2022/12/19 01:32:52;;;;;;;39.25;23.88;;;1.10;99.90;;;;;;5090632;28;20481;-74
2022/12/19 01:35:18;;;;;;;38.80;24.00;;;1.10;99.90;;;;;;5090161;28;20542;-74
2022/12/19 01:37:44;;;;;;;38.80;23.80;;;1.10;99.90;;;;;;5089349;28;20429;-74
2022/12/19 01:40:13;;;;;;;40.07;24.37;;;1.10;99.90;;;;;;5087930;28;20395;-74
2022/12/19 01:42:39;;;;;;;38.35;24.42;;;1.20;99.90;;;;;;5089732;28;20956;-74
2022/12/19 01:45:29;;;;;;;37.40;23.33;;;1.20;99.90;;;;;;5089678;28;20398;-74
2022/12/19 01:48:18;;;;;;;39.63;23.58;;;1.20;99.90;;;;;;5089961;28;20776;-74
2022/12/19 01:50:52;;;;;;;37.03;23.60;;;1.20;99.90;;;;;;5077630;28;20928;-74
2022/12/19 01:53:19;;;;;;;38.60;24.05;;;1.20;99.90;;;;;;5089799;28;20501;-74
2022/12/19 01:55:45;;;;;;;38.47;24.13;;;1.20;99.90;;;;;;5089345;28;20887;-74
2022/12/19 01:58:12;;;;;;;38.63;23.35;;;1.20;99.90;;;;;;5088173;28;20436;-74
2022/12/19 02:00:42;;;;;;;38.43;22.57;;;1.30;99.90;;;;;;5089406;28;20410;-74
2022/12/19 02:03:29;;;;;;;40.00;24.10;;;1.30;99.90;;;;;;5074665;28;20942;-74
2022/12/19 02:05:57;;;;;;;40.28;24.02;;;1.30;99.90;;;;;;5068635;28;20461;-74
2022/12/19 02:08:24;;;;;;;39.25;24.00;;;1.30;99.90;;;;;;5076520;28;20426;-74
2022/12/19 02:10:49;;;;;;;37.90;23.90;;;1.30;99.90;;;;;;5090072;28;20908;-74
2022/12/19 02:13:15;;;;;;;40.53;23.65;;;1.30;99.90;;;;;;5075283;28;20417;-74
2022/12/19 02:16:13;;;;;;;42.58;24.02;;;1.30;99.90;;;;;;5084851;28;20937;-74
2022/12/19 02:18:48;;;;;;;41.40;23.95;;;1.30;99.90;;;;;;5053866;28;20961;-74
2022/12/19 02:21:42;;;;;;;40.25;24.70;;;1.30;99.90;;;;;;5084722;28;20491;-74
2022/12/19 02:24:27;;;;;;;41.65;24.13;;;1.40;99.90;;;;;;5083630;28;20414;-74
2022/12/19 02:27:31;;;;;;;39.25;24.73;;;1.40;99.90;;;;;;5088854;28;20444;-74
2022/12/19 02:30:13;;;;;;;41.63;23.95;;;1.40;99.90;;;;;;5070513;28;20422;-74
2022/12/19 02:32:47;;;;;;;41.30;24.90;;;1.40;99.90;;;;;;5075369;28;20410;-74
2022/12/19 02:35:41;;;;;;;39.58;24.08;;;1.50;99.90;;;;;;5087091;28;20459;-74
2022/12/19 02:38:25;;;;;;;42.97;25.38;;;1.50;99.90;;;;;;5089277;28;20429;-74
2022/12/19 02:41:04;;;;;;;42.92;25.38;;;1.50;99.90;;;;;;5087628;28;20414;-74
2022/12/19 02:43:32;;;;;;;39.88;24.00;;;1.50;99.90;;;;;;5076867;28;20418;-74
2022/12/19 02:46:01;;;;;;;44.38;25.00;;;1.50;99.90;;;;;;5087796;28;20433;-74
2022/12/19 02:48:28;;;;;;;44.40;25.58;;;1.50;99.90;;;;;;5077589;28;20418;-74
2022/12/19 02:50:53;;;;;;;40.35;24.80;;;1.50;99.90;;;;;;5089079;28;20398;-74
2022/12/19 02:53:19;;;;;;;44.85;25.20;;;1.60;99.90;;;;;;5087917;28;21001;-74
2022/12/19 02:56:01;;;;;;;45.03;25.53;;;1.50;99.90;;;;;;5088866;28;20402;-74
2022/12/19 02:58:40;;;;;;;46.45;26.35;;;1.60;99.90;;;;;;5083596;28;20423;-74
2022/12/19 03:01:28;;;;;;;49.53;28.58;;;1.50;99.90;;;;;;5081917;28;20402;-74
2022/12/19 03:04:27;;;;;;;51.38;28.85;;;1.50;99.90;;;;;;5077999;28;21051;-74
2022/12/19 03:06:58;;;;;;;54.00;29.37;;;1.50;99.90;;;;;;5088961;28;20434;-74
2022/12/19 03:09:33;;;;;;;59.72;31.10;;;1.50;99.90;;;;;;5088535;28;20769;-74
2022/12/19 03:12:08;;;;;;;60.47;31.70;;;1.50;99.90;;;;;;5088198;28;20422;-74
2022/12/19 03:14:34;;;;;;;68.30;32.60;;;1.40;99.90;;;;;;5087941;28;20429;-74
2022/12/19 03:17:07;;;;;;;64.18;32.78;;;1.40;99.90;;;;;;5087670;28;20441;-74
2022/12/19 03:19:35;;;;;;;68.35;33.67;;;1.40;99.90;;;;;;5087445;28;20902;-74
2022/12/19 03:22:00;;;;;;;70.70;33.67;;;1.40;99.90;;;;;;5088021;28;20401;-74
2022/12/19 03:24:26;;;;;;;73.80;34.53;;;1.40;99.90;;;;;;5085713;28;21104;-74
2022/12/19 03:27:07;;;;;;;70.87;34.67;;;1.40;99.90;;;;;;5086800;28;20394;-74
2022/12/19 03:29:58;;;;;;;72.13;35.25;;;1.40;99.90;;;;;;5094132;28;20523;-74
2022/12/19 03:32:25;;;;;;;75.28;36.85;;;1.40;99.90;;;;;;5078200;28;20445;-74
2022/12/19 03:34:58;;;;;;;73.67;35.43;;;1.40;99.90;;;;;;5083474;28;20407;-74
2022/12/19 03:37:27;;;;;;;78.35;36.55;;;1.40;99.90;;;;;;5077089;28;22287;-74
2022/12/19 03:40:00;;;;;;;78.40;36.03;;;1.50;99.90;;;;;;5074191;28;20420;-74
2022/12/19 03:45:16;;;;;;;82.78;37.05;;;1.50;99.90;;;;;;5083857;28;20467;-74
2022/12/19 03:47:55;;;;;;;85.13;38.10;;;1.40;99.90;;;;;;5087192;28;20429;-74
2022/12/19 03:50:23;;;;;;;82.43;36.45;;;1.50;99.90;;;;;;5087623;28;20422;-74
2022/12/19 03:52:57;;;;;;;80.22;37.22;;;1.50;99.90;;;;;;5083929;28;20413;-74
2022/12/19 03:55:36;;;;;;;82.13;38.20;;;1.50;99.90;;;;;;5087329;28;20415;-74
2022/12/19 03:58:09;;;;;;;81.88;37.58;;;1.50;99.90;;;;;;5087445;28;20835;-75
2022/12/19 04:00:39;;;;;;;85.78;37.90;;;1.50;99.90;;;;;;5077495;28;20921;-74
2022/12/19 04:03:06;;;;;;;80.13;37.30;;;1.50;99.90;;;;;;5083249;28;20434;-74
2022/12/19 04:05:34;;;;;;;87.80;38.13;;;1.50;99.90;;;;;;5085381;28;20402;-75
2022/12/19 04:08:06;;;;;;;90.47;40.13;;;1.60;99.90;;;;;;5087569;28;20470;-75
2022/12/19 04:10:38;;;;;;;90.70;38.65;;;1.60;99.90;;;;;;5069308;28;20434;-74
2022/12/19 04:13:12;;;;;;;88.32;39.47;;;1.60;99.90;;;;;;5085988;28;20402;-74
2022/12/19 04:16:14;;;;;;;94.07;39.60;;;1.60;99.90;;;;;;5086905;28;20406;-75
2022/12/19 04:18:44;;;;;;;96.70;41.67;;;1.60;99.90;;;;;;5034423;28;20834;-74
2022/12/19 04:21:18;;;;;;;93.15;39.85;;;1.60;99.90;;;;;;5086941;28;20414;-74
2022/12/19 04:23:49;;;;;;;92.13;39.13;;;1.60;99.90;;;;;;5086247;28;20859;-74
2022/12/19 04:26:17;;;;;;;99.40;41.67;;;1.60;99.90;;;;;;5086352;28;20486;-75
2022/12/19 04:28:47;;;;;;;98.27;41.60;;;1.60;99.90;;;;;;5087045;28;20405;-74
2022/12/19 04:31:14;;;;;;;102.57;42.63;;;1.70;99.90;;;;;;5087598;28;20405;-74
2022/12/19 04:33:40;;;;;;;100.88;41.70;;;1.70;99.90;;;;;;5087378;28;20439;-74
2022/12/19 04:36:06;;;;;;;102.47;42.03;;;1.70;99.90;;;;;;5086882;28;20402;-75
2022/12/19 04:38:31;;;;;;;103.97;42.58;;;1.70;99.90;;;;;;5086770;28;20430;-75
2022/12/19 04:40:57;;;;;;;104.63;43.13;;;1.70;99.90;;;;;;5086951;28;20433;-74
2022/12/19 04:43:22;;;;;;;104.23;43.47;;;1.80;99.90;;;;;;5085592;28;20414;-75
2022/12/19 04:45:48;;;;;;;107.80;43.33;;;1.80;99.90;;;;;;5085305;28;20480;-74
2022/12/19 04:48:14;;;;;;;101.28;41.15;;;1.80;99.90;;;;;;5077251;28;20410;-74
2022/12/19 04:50:39;;;;;;;107.13;41.57;;;1.80;99.90;;;;;;5087252;28;20398;-74
2022/12/19 04:53:05;;;;;;;113.47;43.15;;;1.80;99.90;;;;;;5086203;28;20407;-74
2022/12/19 04:55:30;;;;;;;109.88;43.17;;;1.80;99.90;;;;;;5086821;28;20864;-74
2022/12/19 04:57:56;;;;;;;110.67;43.13;;;1.80;99.90;;;;;;5082759;28;20455;-75
2022/12/19 05:00:22;;;;;;;118.03;45.45;;;1.90;99.90;;;;;;5082817;28;20397;-75
2022/12/19 05:02:48;;;;;;;109.10;44.90;;;1.90;99.90;;;;;;5080808;28;20926;-75
2022/12/19 05:05:13;;;;;;;112.87;44.97;;;1.90;99.90;;;;;;5086618;28;20414;-75
2022/12/19 05:07:39;;;;;;;117.40;45.85;;;1.90;99.90;;;;;;5086885;28;20858;-75
2022/12/19 05:10:06;;;;;;;112.88;45.83;;;1.90;99.90;;;;;;5083725;28;20410;-75
2022/12/19 05:12:31;;;;;;;121.63;47.08;;;2.00;99.90;;;;;;5081822;28;20519;-75
2022/12/19 05:14:57;;;;;;;111.47;45.95;;;2.00;99.90;;;;;;5086964;28;20473;-75
2022/12/19 05:17:23;;;;;;;118.13;46.38;;;2.00;99.90;;;;;;5088823;28;20429;-75
2022/12/19 05:19:48;;;;;;;115.80;45.93;;;2.00;99.90;;;;;;5087186;28;20776;-75
2022/12/19 05:22:14;;;;;;;119.88;45.53;;;2.00;99.90;;;;;;5085518;28;20774;-75
2022/12/19 05:24:40;;;;;;;116.15;45.63;;;2.00;99.90;;;;;;5086181;28;20404;-75
2022/12/19 05:27:06;;;;;;;127.40;47.17;;;2.10;99.90;;;;;;5084284;28;20444;-75
2022/12/19 05:29:32;;;;;;;128.55;47.70;;;2.10;99.90;;;;;;5085728;28;20888;-75
2022/12/19 05:31:57;;;;;;;119.23;48.17;;;2.10;99.90;;;;;;5084192;28;20489;-75
2022/12/19 05:34:23;;;;;;;114.53;46.53;;;2.10;99.90;;;;;;5091591;28;20402;-75
2022/12/19 05:36:49;;;;;;;122.40;46.92;;;2.10;99.90;;;;;;5088434;28;20414;-75
2022/12/19 05:39:15;;;;;;;118.30;46.28;;;2.20;99.90;;;;;;5087933;28;20402;-75
2022/12/19 05:41:41;;;;;;;107.57;45.60;;;2.20;99.90;;;;;;5078038;28;20796;-75
2022/12/19 05:44:07;;;;;;;111.17;45.50;;;2.20;99.90;;;;;;5074685;28;20810;-75
2022/12/19 05:46:32;;;;;;;113.20;44.25;;;2.20;99.90;;;;;;5083923;28;20439;-75
2022/12/19 05:48:58;;;;;;;114.87;45.07;;;2.20;99.90;;;;;;5089876;28;20398;-75
2022/12/19 05:51:24;;;;;;;111.38;45.00;;;2.20;99.90;;;;;;5078906;28;20936;-75
2022/12/19 05:53:50;;;;;;;109.57;46.17;;;2.30;99.90;;;;;;5083450;28;20474;-75
2022/12/19 05:56:18;;;;;;;115.05;46.53;;;2.30;99.90;;;;;;5083695;28;20799;-75
2022/12/19 05:58:44;;;;;;;117.53;46.33;;;2.30;99.90;;;;;;5081767;28;20411;-75
2022/12/19 06:01:22;;;;;;;123.63;47.45;;;2.30;99.90;;;;;;5084382;28;20920;-75
2022/12/19 06:03:48;;;;;;;125.95;46.53;;;2.30;99.90;;;;;;5088323;28;20618;-75
2022/12/19 06:06:23;;;;;;;135.25;49.15;;;2.30;99.90;;;;;;5089070;28;20402;-75
2022/12/19 06:08:53;;;;;;;130.50;48.38;;;2.30;99.90;;;;;;5079827;28;20902;-75
2022/12/19 06:11:19;;;;;;;135.95;47.80;;;2.30;99.90;;;;;;5088931;28;20394;-75
2022/12/19 06:13:45;;;;;;;137.85;48.85;;;2.30;99.90;;;;;;5084140;28;20778;-75
2022/12/19 06:16:13;;;;;;;140.97;48.40;;;2.30;99.90;;;;;;5094136;28;20833;-75
2022/12/19 06:18:40;;;;;;;152.27;50.45;;;2.30;99.90;;;;;;5089326;28;20411;-75
2022/12/19 06:21:19;;;;;;;149.93;50.03;;;2.40;99.90;;;;;;5088347;28;20486;-75
2022/12/19 06:23:45;;;;;;;136.88;50.30;;;2.40;99.90;;;;;;5088990;28;20410;-75
2022/12/19 06:26:17;;;;;;;141.95;50.60;;;2.40;99.90;;;;;;5092567;28;20417;-75
2022/12/19 06:28:43;;;;;;;135.20;49.22;;;2.50;99.90;;;;;;5087408;28;20414;-75
2022/12/19 06:31:10;;;;;;;132.37;48.27;;;2.50;99.90;;;;;;5088816;28;20485;-75
2022/12/19 06:33:36;;;;;;;119.18;47.58;;;2.50;99.90;;;;;;5086094;28;20406;-75
2022/12/19 06:36:08;;;;;;;122.73;47.97;;;2.50;99.90;;;;;;5082382;28;20416;-75
2022/12/19 06:38:34;;;;;;;122.68;46.45;;;2.60;99.90;;;;;;5086963;28;20429;-74
2022/12/19 06:43:45;;;;;;;117.63;46.28;;;2.60;99.90;;;;;;5082589;28;20431;-75
2022/12/19 06:46:11;;;;;;;123.68;47.45;;;2.60;99.90;;;;;;5088569;28;20398;-75
2022/12/19 06:48:37;;;;;;;116.93;45.80;;;2.60;99.90;;;;;;5087795;28;20417;-74
2022/12/19 06:51:03;;;;;;;121.23;46.53;;;2.60;99.90;;;;;;5088592;28;20769;-73
2022/12/19 06:53:28;;;;;;;124.33;47.93;;;2.70;99.90;;;;;;5087097;28;20401;-74
2022/12/19 06:55:59;;;;;;;115.13;44.95;;;2.70;99.90;;;;;;5053333;28;20498;-74
2022/12/19 06:58:25;;;;;;;115.80;45.00;;;2.70;99.90;;;;;;5087126;28;20428;-75
2022/12/19 07:00:52;;;;;;;118.32;45.15;;;2.70;99.90;;;;;;5078299;28;20906;-74
2022/12/19 07:03:22;;;;;;;103.53;42.90;;;2.70;99.90;;;;;;5087582;28;20393;-74
2022/12/19 07:05:48;;;;;;;108.35;44.50;;;2.80;99.90;;;;;;5087359;28;20417;-74
2022/12/19 07:08:14;;;;;;;105.05;42.83;;;2.80;99.90;;;;;;5088294;28;20428;-75
2022/12/19 07:10:39;;;;;;;115.80;44.30;;;2.90;99.90;;;;;;5088814;28;20893;-74
2022/12/19 07:13:05;;;;;;;102.15;42.30;;;2.90;99.90;;;;;;5087890;28;20547;-75
2022/12/19 07:15:33;;;;;;;101.60;42.53;;;2.90;99.90;;;;;;5088201;28;20405;-75
2022/12/19 07:18:00;;;;;;;98.13;40.17;;;3.00;99.90;;;;;;5084328;28;20451;-75
2022/12/19 07:20:28;;;;;;;95.07;40.35;;;3.00;99.90;;;;;;5086927;28;20433;-75
2022/12/19 07:22:54;;;;;;;84.18;39.15;;;3.10;99.90;;;;;;5082624;28;20414;-75
2022/12/19 07:25:19;;;;;;;90.93;39.87;;;3.10;99.90;;;;;;5086792;28;20398;-75
2022/12/19 07:27:46;;;;;;;97.00;40.20;;;3.20;99.90;;;;;;5087162;28;20479;-75
2022/12/19 07:30:12;;;;;;;87.33;39.07;;;3.20;99.90;;;;;;5087907;28;20905;-74
2022/12/19 07:32:38;;;;;;;89.83;38.27;;;3.30;99.90;;;;;;5087860;28;20413;-74
2022/12/19 07:35:05;;;;;;;82.13;36.03;;;3.30;99.90;;;;;;5079686;28;20779;-75
2022/12/19 07:37:31;;;;;;;84.28;35.67;;;3.30;99.90;;;;;;5087834;28;20495;-75
2022/12/19 07:39:56;;;;;;;100.73;37.80;;;3.40;99.90;;;;;;5080846;28;20408;-75
2022/12/19 07:42:22;;;;;;;84.10;35.65;;;3.40;99.90;;;;;;5079627;28;20926;-74
2022/12/19 07:44:48;;;;;;;79.73;34.30;;;3.40;99.90;;;;;;5084622;28;20475;-74
2022/12/19 07:47:13;;;;;;;78.27;34.07;;;3.40;99.90;;;;;;5087578;28;20517;-74
2022/12/19 07:49:39;;;;;;;71.45;32.92;;;3.50;99.90;;;;;;5087461;28;20484;-75
2022/12/19 07:52:04;;;;;;;77.57;32.70;;;3.50;99.90;;;;;;5090398;28;20760;-74
2022/12/19 07:54:30;;;;;;;68.90;31.00;;;3.50;99.90;;;;;;5084722;28;20428;-75
2022/12/19 07:56:55;;;;;;;67.70;31.17;;;3.50;99.90;;;;;;5076049;28;20430;-74
2022/12/19 07:59:21;;;;;;;70.32;30.85;;;3.60;99.90;;;;;;5087282;28;20402;-75
2022/12/19 08:01:47;;;;;;;65.93;29.48;;;3.70;99.90;;;;;;5085925;28;20426;-75
2022/12/19 08:04:12;;;;;;;66.20;30.23;;;3.70;99.90;;;;;;5087764;28;20410;-74
2022/12/19 08:06:38;;;;;;;63.38;29.42;;;3.70;99.90;;;;;;5087353;28;20410;-75
2022/12/19 08:09:04;;;;;;;64.13;29.57;;;3.80;99.90;;;;;;5087123;28;20889;-75
2022/12/19 08:11:30;;;;;;;65.88;30.20;;;3.80;99.90;;;;;;5085353;28;20405;-75
2022/12/19 08:13:56;;;;;;;64.78;29.15;;;3.90;99.90;;;;;;5086153;28;20782;-75
2022/12/19 08:16:24;;;;;;;65.07;28.90;;;3.90;99.90;;;;;;5085258;28;20407;-75
2022/12/19 08:18:50;;;;;;;66.07;28.80;;;3.90;99.90;;;;;;5084326;28;20398;-75
2022/12/19 08:21:15;;;;;;;68.53;29.25;;;3.90;99.90;;;;;;5086254;28;20835;-75
2022/12/19 08:23:41;;;;;;;67.30;29.38;;;4.00;99.90;;;;;;5086481;28;20406;-75
2022/12/19 08:26:10;;;;;;;66.20;28.97;;;3.90;99.90;;;;;;5085917;28;20405;-75
2022/12/19 08:28:36;;;;;;;59.90;26.92;;;3.90;99.90;;;;;;5085788;28;20475;-74
2022/12/19 08:31:11;;;;;;;59.03;26.55;;;4.00;99.90;;;;;;5087195;28;20398;-75
2022/12/19 08:33:37;;;;;;;63.05;27.92;;;4.00;99.90;;;;;;5093414;28;20461;-75
2022/12/19 08:36:07;;;;;;;59.80;26.80;;;4.10;99.90;;;;;;5083799;28;20407;-75
2022/12/19 08:38:34;;;;;;;61.70;27.38;;;4.10;99.90;;;;;;5086873;28;20425;-74
2022/12/19 08:41:00;;;;;;;56.97;26.50;;;4.10;99.90;;;;;;5072370;28;20407;-75
2022/12/19 08:43:27;;;;;;;65.30;27.90;;;4.20;99.90;;;;;;5080928;28;20390;-75
2022/12/19 08:45:53;;;;;;;59.03;26.50;;;4.20;99.90;;;;;;5071167;28;20407;-75
2022/12/19 08:48:19;;;;;;;58.95;26.55;;;4.30;99.90;;;;;;5082531;28;20481;-75
2022/12/19 08:50:53;;;;;;;55.95;25.92;;;4.20;99.90;;;;;;5086252;28;20410;-75
2022/12/19 08:53:19;;;;;;;59.92;26.90;;;4.30;99.90;;;;;;5089252;28;20424;-75
2022/12/19 08:55:45;;;;;;;59.10;25.55;;;4.40;99.90;;;;;;5101284;28;20910;-75
2022/12/19 08:58:12;;;;;;;56.95;25.85;;;4.40;99.90;;;;;;5090500;28;20425;-75
2022/12/19 09:00:37;;;;;;;54.43;25.03;;;4.40;99.90;;;;;;5077000;28;20409;-75
2022/12/19 09:03:04;;;;;;;55.80;25.30;;;4.50;99.90;;;;;;5089642;28;20405;-75
2022/12/19 09:05:29;;;;;;;53.47;24.90;;;4.50;99.90;;;;;;5089015;28;20428;-75
2022/12/19 09:07:55;;;;;;;55.65;25.35;;;4.50;99.90;;;;;;5088665;28;20492;-75
2022/12/19 09:10:20;;;;;;;52.13;24.92;;;4.50;99.90;;;;;;5094627;28;20412;-75
2022/12/19 09:12:46;;;;;;;54.57;25.07;;;4.60;99.90;;;;;;5091194;28;20405;-75
2022/12/19 09:15:12;;;;;;;52.90;24.20;;;4.60;99.90;;;;;;5076368;28;20404;-75
2022/12/19 09:17:37;;;;;;;53.47;24.50;;;4.60;99.90;;;;;;5087046;28;20434;-75
2022/12/19 09:20:04;;;;;;;52.42;24.75;;;4.60;99.90;;;;;;5089363;28;20913;-75
2022/12/19 09:22:29;;;;;;;53.58;24.48;;;4.60;99.90;;;;;;5090452;28;20426;-75
2022/12/19 09:24:55;;;;;;;52.40;24.33;;;4.60;99.90;;;;;;5084325;28;20432;-75
2022/12/19 09:27:20;;;;;;;50.90;23.83;;;4.70;99.90;;;;;;5082999;28;20413;-75
2022/12/19 09:29:46;;;;;;;50.27;23.87;;;4.70;99.90;;;;;;5089941;28;20407;-75
2022/12/19 09:32:12;;;;;;;46.95;22.05;;;4.70;99.90;;;;;;5082142;28;20406;-75
2022/12/19 09:34:37;;;;;;;46.43;22.93;;;4.70;99.90;;;;;;5085432;28;20433;-75
2022/12/19 09:37:04;;;;;;;45.95;23.17;;;4.80;99.90;;;;;;5088672;28;20817;-75
2022/12/19 09:39:29;;;;;;;46.75;22.55;;;4.80;99.90;;;;;;5089812;28;20409;-75
2022/12/19 09:42:13;;;;;;;41.47;22.00;;;4.90;99.90;;;;;;5089878;28;20402;-75
2022/12/19 09:45:10;;;;;;;40.67;22.17;;;4.90;99.90;;;;;;5076798;28;20457;-75
2022/12/19 09:47:40;;;;;;;40.83;21.75;;;4.90;99.90;;;;;;5083048;28;20423;-75
2022/12/19 09:50:29;;;;;;;40.28;22.10;;;5.10;99.90;;;;;;5082175;28;20506;-75
2022/12/19 09:53:06;;;;;;;41.00;22.60;;;5.10;99.90;;;;;;5088567;28;20460;-75
2022/12/19 09:55:35;;;;;;;42.30;23.55;;;5.20;99.90;;;;;;5075025;28;20419;-75
2022/12/19 09:58:10;;;;;;;42.40;23.50;;;5.30;99.90;;;;;;5081851;28;20431;-75
2022/12/19 10:00:43;;;;;;;42.90;23.13;;;5.30;99.90;;;;;;5088521;28;20409;-75
2022/12/19 10:03:28;;;;;;;45.75;24.17;;;5.40;99.90;;;;;;5088852;28;20482;-75
2022/12/19 10:05:56;;;;;;;41.88;24.23;;;5.50;99.90;;;;;;5088406;28;20402;-75
2022/12/19 10:08:30;;;;;;;44.80;23.38;;;5.50;99.90;;;;;;5085829;28;20503;-75
2022/12/19 10:11:12;;;;;;;47.08;25.35;;;5.50;99.90;;;;;;5089927;28;20414;-75
2022/12/19 10:14:11;;;;;;;45.58;25.23;;;5.60;99.90;;;;;;5084420;28;20770;-75
2022/12/19 10:17:14;;;;;;;47.05;25.48;;;5.70;99.90;;;;;;5076817;28;20441;-74
2022/12/19 10:20:04;;;;;;;46.80;25.53;;;5.70;99.90;;;;;;5086861;28;20408;-75
2022/12/19 10:22:44;;;;;;;48.92;26.35;;;5.70;99.90;;;;;;5087839;28;20489;-75
2022/12/19 10:25:36;;;;;;;51.90;26.63;;;5.70;99.90;;;;;;5081260;28;20414;-75
2022/12/19 10:28:23;;;;;;;49.38;27.05;;;5.80;99.90;;;;;;5087919;28;20466;-75
2022/12/19 10:31:43;;;;;;;51.67;26.98;;;5.70;99.90;;;;;;5088770;28;20483;-75
2022/12/19 10:34:14;;;;;;;50.88;27.50;;;5.80;99.90;;;;;;4998435;28;20425;-75
2022/12/19 10:36:45;;;;;;;51.35;28.02;;;5.80;99.90;;;;;;5007071;28;20413;-75
2022/12/19 10:39:28;;;;;;;46.95;26.40;;;5.80;99.90;;;;;;5037709;28;20408;-75
2022/12/19 10:42:25;;;;;;;48.22;26.48;;;5.90;99.90;;;;;;5086998;28;20421;-74
2022/12/19 10:44:53;;;;;;;47.65;26.23;;;5.90;99.90;;;;;;5084082;28;20420;-75
2022/12/19 10:47:19;;;;;;;51.75;27.85;;;6.00;99.90;;;;;;5077691;28;20413;-75
2022/12/19 10:49:45;;;;;;;49.60;26.57;;;6.10;99.90;;;;;;5077748;28;20518;-75
2022/12/19 10:52:11;;;;;;;47.38;27.58;;;6.10;99.90;;;;;;5086997;28;21276;-75
2022/12/19 10:54:38;;;;;;;44.08;25.65;;;6.10;99.90;;;;;;5088236;28;20402;-75
2022/12/19 10:57:22;;;;;;;47.92;26.50;;;6.20;99.90;;;;;;5075351;28;20468;-75
2022/12/19 10:59:59;;;;;;;48.80;26.97;;;6.10;99.90;;;;;;5084654;28;20442;-75
2022/12/19 11:02:41;;;;;;;46.67;26.25;;;6.20;99.90;;;;;;5082196;28;20475;-75
2022/12/19 11:05:25;;;;;;;43.97;25.67;;;6.20;99.90;;;;;;5082689;28;20812;-75
2022/12/19 11:08:06;;;;;;;46.15;25.90;;;6.20;99.90;;;;;;5088345;28;20417;-75
2022/12/19 11:10:42;;;;;;;47.53;25.75;;;6.30;99.90;;;;;;5079067;28;20774;-75
2022/12/19 11:13:32;;;;;;;46.90;25.92;;;6.30;99.90;;;;;;5087871;28;20422;-74
2022/12/19 11:16:00;;;;;;;45.28;25.45;;;6.30;99.90;;;;;;5069031;28;20425;-75
2022/12/19 11:18:37;;;;;;;45.75;24.83;;;6.30;99.90;;;;;;5087464;28;20583;-75
2022/12/19 11:21:11;;;;;;;44.33;24.50;;;6.30;99.90;;;;;;5086927;28;20425;-75
2022/12/19 11:24:05;;;;;;;44.70;24.48;;;6.40;99.90;;;;;;5066914;28;20499;-75
2022/12/19 11:26:41;;;;;;;42.53;23.25;;;6.50;99.90;;;;;;5083123;28;20422;-74
2022/12/19 11:29:23;;;;;;;42.13;23.63;;;6.50;99.90;;;;;;5086828;28;20476;-75
2022/12/19 11:31:56;;;;;;;38.83;23.83;;;6.50;99.90;;;;;;5082150;28;20490;-75
2022/12/19 11:34:23;;;;;;;39.63;22.40;;;6.50;99.90;;;;;;5084325;28;20412;-74
2022/12/19 11:37:15;;;;;;;42.37;23.73;;;6.50;99.90;;;;;;5086800;28;20497;-74
2022/12/19 11:39:48;;;;;;;37.83;22.97;;;6.60;99.90;;;;;;5086562;28;20421;-75
2022/12/19 11:42:29;;;;;;;38.95;23.33;;;6.60;99.90;;;;;;5085431;28;20444;-75
2022/12/19 11:45:30;;;;;;;38.15;23.52;;;6.60;99.90;;;;;;5085456;28;20410;-75
2022/12/19 11:48:05;;;;;;;36.67;22.45;;;6.60;99.90;;;;;;5083571;28;20757;-75
2022/12/19 11:50:57;;;;;;;35.50;21.85;;;6.60;99.90;;;;;;5070027;28;20968;-74
2022/12/19 11:53:29;;;;;;;37.33;22.23;;;6.60;99.90;;;;;;5076539;28;20407;-75
2022/12/19 11:55:54;;;;;;;39.07;22.17;;;6.70;99.90;;;;;;5086226;28;20489;-75
2022/12/19 11:58:22;;;;;;;35.95;22.55;;;6.70;99.90;;;;;;5087511;28;20873;-75
2022/12/19 12:01:04;;;;;;;36.38;21.58;;;6.70;99.90;;;;;;5087955;28;20481;-75
2022/12/19 12:03:43;;;;;;;35.38;21.80;;;6.70;99.90;;;;;;5065429;28;21614;-75
2022/12/19 12:06:15;;;;;;;33.80;20.58;;;6.70;99.90;;;;;;5085454;28;21012;-74
2022/12/19 12:08:41;;;;;;;32.25;21.38;;;6.80;99.90;;;;;;5087596;28;20401;-75
2022/12/19 12:11:37;;;;;;;34.30;21.07;;;6.80;99.90;;;;;;5087159;28;20417;-75
2022/12/19 12:14:22;;;;;;;33.45;21.40;;;6.80;99.90;;;;;;5079559;28;20962;-75
2022/12/19 12:17:06;;;;;;;33.88;20.80;;;6.80;99.90;;;;;;5078506;28;20426;-75
2022/12/19 12:19:48;;;;;;;33.42;19.90;;;6.80;99.90;;;;;;5087339;28;20467;-75
2022/12/19 12:22:36;;;;;;;30.60;18.95;;;6.90;99.90;;;;;;5077809;28;20431;-75
2022/12/19 12:25:38;;;;;;;32.60;19.13;;;6.90;99.90;;;;;;5034569;28;20428;-76
2022/12/19 12:28:23;;;;;;;29.77;19.00;;;6.90;99.90;;;;;;5084235;28;20411;-75
2022/12/19 12:30:55;;;;;;;30.80;20.10;;;6.90;99.90;;;;;;5088792;28;20409;-75
2022/12/19 12:33:31;;;;;;;29.85;19.65;;;6.90;99.90;;;;;;5083995;28;20446;-75
2022/12/19 12:36:10;;;;;;;29.30;19.27;;;7.00;99.90;;;;;;5084126;28;20502;-75
2022/12/19 12:38:41;;;;;;;30.05;19.80;;;7.00;99.90;;;;;;5083726;28;20516;-75
2022/12/19 12:41:10;;;;;;;30.50;18.65;;;7.00;99.90;;;;;;5086569;28;20487;-75
2022/12/19 12:44:05;;;;;;;30.48;19.23;;;7.00;99.90;;;;;;5084706;28;20491;-74
2022/12/19 12:46:38;;;;;;;28.35;19.08;;;7.00;99.90;;;;;;5073661;28;20412;-75
2022/12/19 12:49:12;;;;;;;31.25;19.35;;;7.00;99.90;;;;;;5091008;28;20408;-75
2022/12/19 12:51:38;;;;;;;30.43;19.53;;;7.10;99.90;;;;;;5085331;28;20409;-75
2022/12/19 12:54:09;;;;;;;31.53;19.57;;;7.10;99.90;;;;;;5080256;28;20738;-75
2022/12/19 12:56:35;;;;;;;30.33;19.45;;;7.10;99.90;;;;;;5072287;28;20417;-75
2022/12/19 12:59:05;;;;;;;34.00;20.40;;;7.20;99.90;;;;;;5091263;28;20398;-75
2022/12/19 13:01:39;;;;;;;32.28;20.00;;;7.20;99.90;;;;;;5087085;28;20406;-75
2022/12/19 13:04:10;;;;;;;34.77;20.63;;;7.20;99.90;;;;;;5077802;28;20803;-75